createdAt,value
2023-03-27T00:01:37.915Z,6.72
2023-03-27T00:03:41.028Z,7.00
2023-03-27T00:05:46.109Z,7.78
2023-03-27T00:07:51.578Z,7.43
2023-03-27T00:09:54.186Z,6.65
2023-03-27T00:11:56.970Z,7.53
2023-03-27T00:14:00.098Z,8.00
2023-03-27T00:16:03.114Z,6.53
2023-03-27T00:18:05.872Z,6.65
2023-03-27T00:20:08.811Z,8.07
2023-03-27T00:22:11.552Z,7.68
2023-03-27T00:24:14.226Z,6.88
2023-03-27T00:26:16.883Z,7.55
2023-03-27T00:28:19.443Z,8.35
2023-03-27T00:30:23.401Z,6.90
2023-03-27T00:32:26.821Z,7.47
2023-03-27T00:34:30.368Z,8.02
2023-03-27T00:36:32.938Z,7.72
2023-03-27T00:38:37.019Z,7.63
2023-03-27T00:40:40.277Z,7.50
2023-03-27T00:42:42.978Z,7.70
2023-03-27T00:44:45.572Z,8.43
2023-03-27T00:46:49.758Z,8.55
2023-03-27T00:48:53.371Z,7.95
2023-03-27T00:50:58.569Z,8.23
2023-03-27T00:53:08.255Z,8.52
2023-03-27T00:55:15.496Z,9.48
2023-03-27T00:57:19.796Z,8.27
2023-03-27T00:59:31.265Z,9.57
2023-03-27T01:01:34.060Z,8.48
2023-03-27T01:03:37.188Z,8.88
2023-03-27T01:05:40.915Z,8.18
2023-03-27T01:08:00.637Z,8.63
2023-03-27T01:10:06.569Z,8.88
2023-03-27T01:12:50.535Z,8.68
2023-03-27T01:14:58.884Z,8.50
2023-03-27T01:17:13.177Z,10.18
2023-03-27T01:20:00.235Z,9.23
2023-03-27T01:22:38.911Z,10.70
2023-03-27T01:25:22.693Z,10.98
2023-03-27T01:27:52.641Z,10.77
2023-03-27T01:30:20.010Z,10.32
2023-03-27T01:32:56.714Z,8.98
2023-03-27T01:35:06.348Z,9.82
2023-03-27T01:37:35.101Z,10.80
2023-03-27T01:39:40.993Z,10.63
2023-03-27T01:41:50.109Z,10.27
2023-03-27T01:44:11.932Z,11.48
2023-03-27T01:46:21.756Z,9.18
2023-03-27T01:48:36.398Z,10.02
2023-03-27T01:50:59.578Z,10.50
2023-03-27T01:53:15.063Z,10.23
2023-03-27T01:55:24.305Z,10.98
2023-03-27T01:57:37.431Z,11.20
2023-03-27T02:00:19.378Z,10.27
2023-03-27T02:02:31.212Z,9.75
2023-03-27T02:04:47.168Z,10.15
2023-03-27T02:06:55.538Z,9.98
2023-03-27T02:09:12.203Z,9.82
2023-03-27T02:11:15.681Z,9.45
2023-03-27T02:13:32.883Z,8.85
2023-03-27T02:15:41.044Z,9.80
2023-03-27T02:17:48.292Z,10.07
2023-03-27T02:19:58.915Z,9.00
2023-03-27T02:22:01.864Z,10.00
2023-03-27T02:24:06.367Z,9.52
2023-03-27T02:26:13.323Z,9.18
2023-03-27T02:28:54.010Z,9.02
2023-03-27T02:31:33.115Z,8.13
2023-03-27T02:34:08.059Z,8.20
2023-03-27T02:36:44.773Z,8.45
2023-03-27T02:38:56.104Z,7.90
2023-03-27T02:41:26.973Z,8.07
2023-03-27T02:43:47.772Z,8.00
2023-03-27T02:46:17.042Z,8.55
2023-03-27T02:48:25.372Z,7.97
2023-03-27T02:50:34.404Z,9.07
2023-03-27T02:52:42.365Z,7.75
2023-03-27T02:54:52.479Z,8.25
2023-03-27T02:57:03.684Z,9.40
2023-03-27T02:59:11.244Z,8.57
2023-03-27T03:01:16.818Z,8.07
2023-03-27T03:03:28.962Z,8.15
2023-03-27T03:05:32.979Z,9.20
2023-03-27T03:07:38.324Z,7.60
2023-03-27T03:09:42.284Z,8.82
2023-03-27T03:11:48.891Z,7.35
2023-03-27T03:13:51.477Z,7.20
2023-03-27T03:15:54.316Z,6.95
2023-03-27T03:17:57.007Z,6.88
2023-03-27T03:19:59.736Z,7.50
2023-03-27T03:22:02.659Z,7.68
2023-03-27T03:24:06.003Z,8.27
2023-03-27T03:26:08.763Z,7.43
2023-03-27T03:28:11.395Z,7.15
2023-03-27T03:30:16.650Z,6.97
2023-03-27T03:32:20.267Z,6.10
2023-03-27T03:34:22.901Z,6.75
2023-03-27T03:36:25.548Z,7.22
2023-03-27T03:38:30.098Z,7.35
2023-03-27T03:40:41.031Z,8.60
2023-03-27T03:42:47.884Z,6.30
2023-03-27T03:44:50.900Z,7.57
2023-03-27T03:46:53.443Z,5.97
2023-03-27T03:48:57.919Z,7.05
2023-03-27T03:51:01.570Z,5.43
2023-03-27T03:53:08.733Z,6.20
2023-03-27T03:55:12.515Z,6.38
2023-03-27T03:57:15.552Z,6.07
2023-03-27T03:59:18.629Z,5.22
2023-03-27T04:01:21.495Z,5.32
2023-03-27T04:03:27.338Z,5.68
2023-03-27T04:05:30.831Z,5.82
2023-03-27T04:07:35.914Z,5.30
2023-03-27T04:09:38.519Z,5.97
2023-03-27T04:11:41.110Z,6.07
2023-03-27T04:13:43.712Z,6.72
2023-03-27T04:15:46.332Z,5.90
2023-03-27T04:17:49.215Z,5.63
2023-03-27T04:19:54.387Z,5.80
2023-03-27T04:21:58.397Z,6.22
2023-03-27T04:24:02.882Z,4.50
2023-03-27T04:26:06.260Z,5.80
2023-03-27T04:28:10.541Z,5.38
2023-03-27T04:30:16.089Z,6.57
2023-03-27T04:32:19.891Z,4.90
2023-03-27T04:34:22.559Z,5.90
2023-03-27T04:36:25.901Z,5.15
2023-03-27T04:38:31.712Z,5.65
2023-03-27T04:40:34.318Z,5.25
2023-03-27T04:42:44.172Z,6.05
2023-03-27T04:44:47.824Z,6.00
2023-03-27T04:46:50.535Z,4.82
2023-03-27T04:48:53.312Z,5.40
2023-03-27T04:50:56.233Z,5.50
2023-03-27T04:53:00.767Z,6.18
2023-03-27T04:55:05.118Z,5.47
2023-03-27T04:57:10.259Z,4.50
2023-03-27T04:59:13.719Z,5.00
2023-03-27T05:01:17.507Z,4.82
2023-03-27T05:03:20.346Z,4.47
2023-03-27T05:05:23.321Z,4.78
2023-03-27T05:07:26.782Z,4.75
2023-03-27T05:09:29.471Z,5.53
2023-03-27T05:11:32.071Z,5.63
2023-03-27T05:13:34.802Z,4.53
2023-03-27T05:15:39.342Z,4.57
2023-03-27T05:17:43.669Z,5.22
2023-03-27T05:19:46.778Z,5.72
2023-03-27T05:21:49.435Z,7.15
2023-03-27T05:23:52.333Z,5.63
2023-03-27T05:25:59.988Z,5.70
2023-03-27T05:28:03.616Z,6.25
2023-03-27T05:30:07.158Z,4.78
2023-03-27T05:32:09.797Z,4.95
2023-03-27T05:34:13.752Z,5.18
2023-03-27T05:36:16.427Z,4.38
2023-03-27T05:38:20.136Z,5.13
2023-03-27T05:40:25.807Z,5.72
2023-03-27T05:42:28.505Z,5.18
2023-03-27T05:44:31.408Z,5.80
2023-03-27T05:46:34.088Z,5.25
2023-03-27T05:48:36.763Z,5.05
2023-03-27T05:50:39.454Z,5.38
2023-03-27T05:52:42.469Z,5.50
2023-03-27T05:54:45.068Z,5.10
2023-03-27T05:56:47.886Z,5.70
2023-03-27T05:58:50.654Z,5.32
2023-03-27T06:00:54.435Z,5.18
2023-03-27T06:02:59.453Z,4.93
2023-03-27T06:05:02.235Z,5.25
2023-03-27T06:07:06.265Z,4.20
2023-03-27T06:09:09.935Z,4.10
2023-03-27T06:11:15.568Z,3.95
2023-03-27T06:13:18.760Z,4.28
2023-03-27T06:15:21.612Z,4.07
2023-03-27T06:17:24.446Z,4.07
2023-03-27T06:19:27.539Z,4.10
2023-03-27T06:21:30.179Z,3.55
2023-03-27T06:23:32.926Z,3.22
2023-03-27T06:25:39.338Z,4.18
2023-03-27T06:27:43.632Z,5.07
2023-03-27T06:29:47.106Z,4.53
2023-03-27T06:31:49.835Z,4.88
2023-03-27T06:33:52.711Z,4.63
2023-03-27T06:36:00.810Z,4.40
2023-03-27T06:38:04.123Z,4.28
2023-03-27T06:40:10.584Z,4.25
2023-03-27T06:42:13.224Z,3.88
2023-03-27T06:44:16.231Z,4.43
2023-03-27T06:46:19.107Z,4.03
2023-03-27T06:48:22.718Z,4.38
2023-03-27T06:50:27.590Z,4.38
2023-03-27T06:52:30.286Z,4.57
2023-03-27T06:54:32.894Z,5.15
2023-03-27T06:56:35.632Z,5.47
2023-03-27T06:58:38.263Z,4.57
2023-03-27T07:00:41.833Z,5.40
2023-03-27T07:02:44.534Z,5.10
2023-03-27T07:04:54.406Z,5.43
2023-03-27T07:07:00.816Z,5.45
2023-03-27T07:09:03.725Z,6.05
2023-03-27T07:11:11.967Z,5.97
2023-03-27T07:13:16.787Z,5.45
2023-03-27T07:15:20.432Z,5.53
2023-03-27T07:17:23.107Z,5.60
2023-03-27T07:19:25.706Z,5.38
2023-03-27T07:21:28.442Z,6.18
2023-03-27T07:23:31.566Z,5.43
2023-03-27T07:25:38.268Z,6.00
2023-03-27T07:27:41.853Z,5.40
2023-03-27T07:29:44.490Z,7.15
2023-03-27T07:31:56.897Z,7.22
2023-03-27T07:34:03.317Z,7.03
2023-03-27T07:36:08.086Z,7.38
2023-03-27T07:38:10.885Z,7.10
2023-03-27T07:40:13.571Z,6.75
2023-03-27T07:42:16.223Z,8.35
2023-03-27T07:44:19.880Z,7.88
2023-03-27T07:46:24.809Z,7.07
2023-03-27T07:48:29.085Z,7.10
2023-03-27T07:50:31.783Z,7.40
2023-03-27T07:52:36.738Z,7.18
2023-03-27T07:54:39.347Z,7.28
2023-03-27T07:56:42.228Z,6.07
2023-03-27T07:58:45.040Z,7.63
2023-03-27T08:00:53.218Z,6.53
2023-03-27T08:03:06.233Z,7.53
2023-03-27T08:05:10.278Z,7.30
2023-03-27T08:07:13.074Z,7.25
2023-03-27T08:09:16.166Z,7.38
2023-03-27T08:11:30.324Z,7.35
2023-03-27T08:13:33.338Z,8.00
2023-03-27T08:15:35.944Z,8.10
2023-03-27T08:17:38.693Z,8.27
2023-03-27T08:19:41.810Z,8.13
2023-03-27T08:21:47.784Z,8.35
2023-03-27T08:23:51.510Z,9.38
2023-03-27T08:25:55.174Z,8.52
2023-03-27T08:27:58.136Z,9.50
2023-03-27T08:30:01.618Z,8.85
2023-03-27T08:32:08.608Z,7.90
2023-03-27T08:34:11.732Z,8.13
2023-03-27T08:36:20.204Z,9.18
2023-03-27T08:38:26.988Z,8.73
2023-03-27T08:40:34.192Z,8.35
2023-03-27T08:42:43.046Z,8.48
2023-03-27T08:44:45.850Z,8.68
2023-03-27T08:46:56.235Z,7.15
2023-03-27T08:49:29.780Z,7.72
2023-03-27T08:51:38.725Z,6.97
2023-03-27T08:54:08.126Z,8.23
2023-03-27T08:56:15.824Z,8.27
2023-03-27T08:58:21.021Z,8.00
2023-03-27T09:00:32.051Z,7.72
2023-03-27T09:02:53.546Z,8.25
2023-03-27T09:05:10.146Z,7.63
2023-03-27T09:07:34.575Z,7.18
2023-03-27T09:09:59.606Z,8.02
2023-03-27T09:12:31.311Z,6.40
2023-03-27T09:14:39.164Z,7.63
2023-03-27T09:16:50.364Z,6.70
2023-03-27T09:18:59.012Z,7.72
2023-03-27T09:21:21.942Z,9.18
2023-03-27T09:23:38.366Z,7.18
2023-03-27T09:25:47.668Z,7.20
2023-03-27T09:27:52.563Z,6.30
2023-03-27T09:30:16.338Z,8.60
2023-03-27T09:32:19.263Z,6.28
2023-03-27T09:34:32.741Z,7.55
2023-03-27T09:36:38.924Z,8.63
2023-03-27T09:38:44.802Z,7.70
2023-03-27T09:41:08.447Z,8.10
2023-03-27T09:43:26.552Z,6.13
2023-03-27T09:45:29.308Z,7.10
2023-03-27T09:47:44.275Z,7.03
2023-03-27T09:49:56.790Z,7.55
2023-03-27T09:52:00.486Z,6.60
2023-03-27T09:54:03.841Z,7.82
2023-03-27T09:56:13.311Z,7.43
2023-03-27T09:58:32.176Z,6.45
2023-03-27T10:00:35.573Z,7.70
2023-03-27T10:02:38.572Z,7.70
2023-03-27T10:05:17.038Z,7.93
2023-03-27T10:07:27.117Z,6.60
2023-03-27T10:09:34.504Z,7.38
2023-03-27T10:11:37.241Z,6.30
2023-03-27T10:13:45.337Z,8.23
2023-03-27T10:15:48.160Z,6.95
2023-03-27T10:17:51.114Z,5.80
2023-03-27T10:20:00.647Z,6.78
2023-03-27T10:22:31.756Z,6.22
2023-03-27T10:24:44.144Z,6.90
2023-03-27T10:26:52.687Z,5.70
2023-03-27T10:29:01.881Z,6.35
2023-03-27T10:31:11.255Z,5.85
2023-03-27T10:33:14.350Z,6.85
2023-03-27T10:35:38.036Z,6.57
2023-03-27T10:37:41.847Z,6.97
2023-03-27T10:39:55.287Z,7.05
2023-03-27T10:42:02.105Z,5.78
2023-03-27T10:44:17.973Z,5.85
2023-03-27T10:46:23.483Z,5.60
2023-03-27T10:48:41.160Z,7.13
2023-03-27T10:50:54.500Z,6.20
2023-03-27T10:53:18.406Z,6.15
2023-03-27T10:55:44.826Z,6.70
2023-03-27T10:57:54.650Z,6.63
2023-03-27T11:00:41.751Z,7.05
2023-03-27T11:02:57.750Z,6.35
2023-03-27T11:05:11.487Z,6.30
2023-03-27T11:07:33.917Z,6.78
2023-03-27T11:09:46.628Z,7.13
2023-03-27T11:11:58.524Z,6.72
2023-03-27T11:14:05.972Z,6.93
2023-03-27T11:16:29.659Z,7.43
2023-03-27T11:18:39.371Z,7.07
2023-03-27T11:20:59.998Z,7.35
2023-03-27T11:23:18.691Z,6.93
2023-03-27T11:25:38.594Z,7.60
2023-03-27T11:27:51.829Z,7.72
2023-03-27T11:30:10.450Z,6.88
2023-03-27T11:32:28.510Z,6.00
2023-03-27T11:34:36.700Z,6.93
2023-03-27T11:36:51.612Z,6.63
2023-03-27T11:39:29.180Z,6.93
2023-03-27T11:41:31.943Z,6.90
2023-03-27T11:43:38.765Z,7.78
2023-03-27T11:45:57.258Z,7.00
2023-03-27T11:48:12.333Z,7.65
2023-03-27T11:50:29.768Z,7.47
2023-03-27T11:52:44.319Z,7.55
2023-03-27T11:55:06.813Z,7.15
2023-03-27T11:57:55.853Z,7.30
2023-03-27T12:00:05.288Z,7.72
2023-03-27T12:02:40.762Z,7.40
2023-03-27T12:04:53.210Z,7.80
2023-03-27T12:07:09.816Z,8.20
2023-03-27T12:09:25.499Z,8.27
2023-03-27T12:11:37.449Z,8.00
2023-03-27T12:13:58.289Z,7.60
2023-03-27T12:16:27.520Z,7.32
2023-03-27T12:18:51.184Z,8.10
2023-03-27T12:21:17.894Z,8.18
2023-03-27T12:23:42.664Z,8.27
2023-03-27T12:26:09.421Z,8.68
2023-03-27T12:28:23.700Z,8.82
2023-03-27T12:30:32.571Z,8.38
2023-03-27T12:32:48.965Z,8.02
2023-03-27T12:35:24.627Z,9.90
2023-03-27T12:37:34.773Z,7.78
2023-03-27T12:39:57.352Z,10.00
2023-03-27T12:42:00.032Z,9.07
2023-03-27T12:44:06.470Z,9.20
2023-03-27T12:46:23.959Z,10.70
2023-03-27T12:48:27.370Z,9.43
2023-03-27T12:50:35.213Z,9.73
2023-03-27T12:52:38.674Z,9.90
2023-03-27T12:55:01.783Z,9.70
2023-03-27T12:57:25.114Z,10.63
2023-03-27T12:59:29.855Z,9.73
2023-03-27T13:01:54.904Z,8.95
2023-03-27T13:04:40.621Z,9.27
2023-03-27T13:06:56.149Z,9.52
2023-03-27T13:09:28.554Z,8.52
2023-03-27T13:11:34.037Z,9.55
2023-03-27T13:13:45.521Z,9.15
2023-03-27T13:16:19.377Z,9.75
2023-03-27T13:18:45.946Z,8.65
2023-03-27T13:21:09.435Z,8.93
2023-03-27T13:23:34.978Z,10.45
2023-03-27T13:26:03.639Z,8.38
2023-03-27T13:28:31.942Z,7.95
2023-03-27T13:30:50.724Z,9.20
2023-03-27T13:33:31.751Z,8.10
2023-03-27T13:35:41.552Z,9.57
2023-03-27T13:37:51.246Z,8.23
2023-03-27T13:40:07.586Z,10.18
2023-03-27T13:42:22.496Z,8.80
2023-03-27T13:44:30.569Z,9.55
2023-03-27T13:46:35.692Z,7.70
2023-03-27T13:48:38.489Z,8.50
2023-03-27T13:50:54.545Z,8.13
2023-03-27T13:53:15.567Z,8.48
2023-03-27T13:55:29.088Z,8.40
2023-03-27T13:57:56.265Z,8.45
2023-03-27T14:00:08.562Z,8.40
2023-03-27T14:02:29.667Z,8.50
2023-03-27T14:05:09.792Z,8.57
2023-03-27T14:07:39.658Z,8.18
2023-03-27T14:09:42.222Z,8.68
2023-03-27T14:11:47.555Z,8.30
2023-03-27T14:14:07.314Z,8.15
2023-03-27T14:16:31.731Z,8.13
2023-03-27T14:18:56.269Z,8.27
2023-03-27T14:21:06.359Z,8.05
2023-03-27T14:23:26.635Z,9.18
2023-03-27T14:25:36.878Z,8.10
2023-03-27T14:27:42.590Z,7.72
2023-03-27T14:29:45.317Z,8.55
2023-03-27T14:31:49.443Z,8.15
2023-03-27T14:33:58.204Z,7.75
2023-03-27T14:36:05.732Z,7.63
2023-03-27T14:38:33.428Z,8.55
2023-03-27T14:40:41.841Z,7.35
2023-03-27T14:42:52.833Z,8.02
2023-03-27T14:45:23.229Z,7.53
2023-03-27T14:47:26.167Z,7.85
2023-03-27T14:49:37.711Z,8.80
2023-03-27T14:51:42.273Z,7.82
2023-03-27T14:53:49.707Z,7.55
2023-03-27T14:55:55.497Z,9.10
2023-03-27T14:58:11.036Z,7.97
2023-03-27T15:00:17.705Z,7.90
2023-03-27T15:02:30.737Z,7.80
2023-03-27T15:04:34.609Z,8.40
2023-03-27T15:06:37.832Z,8.23
2023-03-27T15:08:46.735Z,7.65
2023-03-27T15:10:53.549Z,8.75
2023-03-27T15:12:56.642Z,8.93
2023-03-27T15:14:59.997Z,9.15
2023-03-27T15:17:15.760Z,8.48
2023-03-27T15:19:23.927Z,9.35
2023-03-27T15:21:39.277Z,9.13
2023-03-27T15:23:51.144Z,8.88
2023-03-27T15:28:06.707Z,8.68
2023-03-27T15:30:38.105Z,8.80
2023-03-27T15:32:50.993Z,8.88
2023-03-27T15:34:58.244Z,8.82
2023-03-27T15:37:06.271Z,8.00
2023-03-27T15:39:20.672Z,8.55
2023-03-27T15:41:35.258Z,9.35
2023-03-27T15:43:38.095Z,8.43
2023-03-27T15:45:57.715Z,9.45
2023-03-27T15:48:03.079Z,8.15
2023-03-27T15:50:28.167Z,8.90
2023-03-27T15:52:34.104Z,9.32
2023-03-27T15:54:36.941Z,7.93
2023-03-27T15:56:44.235Z,7.65
2023-03-27T15:58:58.543Z,9.93
2023-03-27T16:01:18.868Z,11.20
2023-03-27T16:03:25.430Z,8.85
2023-03-27T16:05:28.395Z,8.93
2023-03-27T16:07:47.323Z,8.23
2023-03-27T16:09:52.678Z,9.00
2023-03-27T16:11:57.808Z,8.75
2023-03-27T16:14:00.683Z,9.55
2023-03-27T16:16:21.633Z,8.88
2023-03-27T16:18:32.108Z,8.65
2023-03-27T16:20:39.157Z,8.55
2023-03-27T16:22:41.794Z,8.70
2023-03-27T16:24:44.504Z,9.70
2023-03-27T16:26:47.509Z,9.45
2023-03-27T16:28:50.336Z,9.00
2023-03-27T16:30:53.046Z,9.55
2023-03-27T16:32:56.312Z,9.43
2023-03-27T16:34:59.064Z,8.93
2023-03-27T16:37:01.764Z,8.93
2023-03-27T16:39:05.047Z,9.23
2023-03-27T16:41:12.203Z,8.48
2023-03-27T16:43:15.172Z,8.27
2023-03-27T16:45:17.940Z,7.90
2023-03-27T16:47:23.182Z,9.38
2023-03-27T16:49:26.522Z,9.60
2023-03-27T16:51:29.503Z,7.93
2023-03-27T16:53:32.110Z,8.30
2023-03-27T16:55:34.712Z,8.57
2023-03-27T16:57:37.333Z,8.93
2023-03-27T16:59:40.864Z,8.52
2023-03-27T17:01:43.738Z,7.75
2023-03-27T17:03:46.619Z,8.35
2023-03-27T17:05:49.547Z,8.15
2023-03-27T17:07:52.603Z,7.65
2023-03-27T17:09:55.624Z,7.13
2023-03-27T17:11:58.571Z,7.20
2023-03-27T17:14:01.418Z,7.80
2023-03-27T17:16:05.220Z,8.15
2023-03-27T17:18:07.990Z,7.60
2023-03-27T17:20:11.152Z,7.32
2023-03-27T17:22:14.223Z,8.57
2023-03-27T17:24:19.976Z,7.32
2023-03-27T17:26:34.812Z,7.05
2023-03-27T17:28:37.967Z,7.80
2023-03-27T17:30:56.783Z,7.93
2023-03-27T17:33:06.392Z,7.40
2023-03-27T17:35:09.531Z,8.00
2023-03-27T17:37:12.792Z,7.82
2023-03-27T17:39:15.516Z,8.98
2023-03-27T17:41:18.761Z,8.38
2023-03-27T17:43:21.424Z,8.65
2023-03-27T17:45:24.081Z,8.50
2023-03-27T17:47:26.765Z,8.73
2023-03-27T17:49:30.035Z,7.43
2023-03-27T17:51:34.337Z,7.45
2023-03-27T17:53:38.965Z,8.35
2023-03-27T17:55:41.717Z,8.63
2023-03-27T17:57:47.448Z,7.97
2023-03-27T17:59:53.693Z,9.15
2023-03-27T18:01:56.784Z,9.00
2023-03-27T18:04:00.802Z,9.35
2023-03-27T18:06:04.276Z,8.18
2023-03-27T18:08:08.739Z,9.50
2023-03-27T18:10:17.368Z,9.05
2023-03-27T18:12:19.959Z,8.25
2023-03-27T18:14:22.748Z,8.60
2023-03-27T18:16:25.400Z,8.68
2023-03-27T18:18:28.017Z,8.70
2023-03-27T18:20:30.695Z,9.13
2023-03-27T18:22:33.245Z,9.07
2023-03-27T18:24:35.860Z,7.32
2023-03-27T18:26:38.598Z,7.20
2023-03-27T18:28:42.835Z,6.50
2023-03-27T18:30:46.625Z,6.95
2023-03-27T18:32:49.428Z,6.28
2023-03-27T18:34:52.130Z,5.05
2023-03-27T18:36:54.820Z,5.35
2023-03-27T18:38:57.508Z,5.72
2023-03-27T18:41:00.314Z,6.25
2023-03-27T18:43:03.222Z,5.82
2023-03-27T18:45:08.158Z,4.95
2023-03-27T18:47:11.277Z,4.15
2023-03-27T18:49:24.367Z,4.90
2023-03-27T18:51:28.180Z,3.72
2023-03-27T18:53:31.592Z,3.67
2023-03-27T18:55:34.270Z,4.32
2023-03-27T18:57:38.396Z,4.68
2023-03-27T18:59:41.220Z,3.75
2023-03-27T19:01:44.227Z,4.45
2023-03-27T19:03:46.874Z,4.55
2023-03-27T19:05:51.403Z,4.28
2023-03-27T19:07:57.810Z,3.97
2023-03-27T19:10:00.435Z,3.72
2023-03-27T19:12:03.716Z,4.10
2023-03-27T19:14:06.403Z,3.97
2023-03-27T19:16:14.287Z,3.33
2023-03-27T19:18:18.992Z,2.90
2023-03-27T19:20:22.130Z,2.97
2023-03-27T19:22:24.768Z,3.40
2023-03-27T19:24:27.511Z,3.58
2023-03-27T19:26:33.646Z,2.70
2023-03-27T19:28:37.477Z,2.92
2023-03-27T19:30:40.527Z,2.90
2023-03-27T19:32:43.563Z,3.42
2023-03-27T19:34:46.221Z,2.58
2023-03-27T19:36:51.026Z,2.85
2023-03-27T19:38:54.945Z,3.10
2023-03-27T19:40:57.958Z,3.67
2023-03-27T19:43:00.948Z,3.13
2023-03-27T19:45:03.953Z,3.15
2023-03-27T19:47:07.822Z,3.75
2023-03-27T19:49:10.948Z,3.03
2023-03-27T19:51:13.909Z,3.97
2023-03-27T19:53:17.265Z,2.80
2023-03-27T19:55:24.172Z,2.70
2023-03-27T19:57:26.934Z,3.60
2023-03-27T19:59:31.100Z,2.92
2023-03-27T20:01:37.808Z,3.40
2023-03-27T20:03:40.791Z,3.35
2023-03-27T20:05:48.677Z,3.70
2023-03-27T20:07:51.780Z,4.43
2023-03-27T20:09:54.464Z,3.88
2023-03-27T20:11:57.157Z,3.45
2023-03-27T20:14:00.110Z,3.47
2023-03-27T20:16:05.087Z,3.38
2023-03-27T20:18:08.306Z,4.70
2023-03-27T20:20:11.706Z,3.67
2023-03-27T20:22:17.704Z,3.55
2023-03-27T20:24:20.623Z,3.70
2023-03-27T20:26:24.518Z,3.25
2023-03-27T20:28:27.658Z,3.45
2023-03-27T20:30:31.263Z,3.72
2023-03-27T20:32:33.926Z,4.05
2023-03-27T20:34:38.549Z,3.72
2023-03-27T20:36:43.588Z,3.13
2023-03-27T20:38:46.642Z,3.65
2023-03-27T20:40:54.000Z,3.80
2023-03-27T20:43:04.299Z,3.92
2023-03-27T20:45:07.585Z,3.30
2023-03-27T20:47:13.486Z,3.20
2023-03-27T20:51:34.030Z,4.10
2023-03-27T20:53:40.164Z,4.40
2023-03-27T20:55:56.972Z,4.18
2023-03-27T20:58:03.065Z,3.78
2023-03-27T21:00:11.385Z,3.20
2023-03-27T21:02:19.141Z,3.45
2023-03-27T21:04:21.889Z,3.58
2023-03-27T21:06:25.936Z,3.05
2023-03-27T21:08:31.640Z,3.10
2023-03-27T21:10:34.721Z,3.55
2023-03-27T21:12:39.268Z,3.22
2023-03-27T21:14:43.135Z,3.35
2023-03-27T21:16:46.018Z,3.53
2023-03-27T21:18:48.624Z,3.15
2023-03-27T21:20:51.975Z,3.78
2023-03-27T21:22:54.813Z,4.47
2023-03-27T21:24:57.509Z,3.17
2023-03-27T21:27:00.321Z,4.25
2023-03-27T21:29:03.590Z,3.28
2023-03-27T21:31:08.354Z,3.83
2023-03-27T21:33:11.524Z,4.40
2023-03-27T21:35:14.366Z,3.63
2023-03-27T21:37:17.163Z,3.95
2023-03-27T21:39:19.943Z,3.63
2023-03-27T21:41:22.614Z,4.07
2023-03-27T21:43:26.103Z,3.90
2023-03-27T21:45:28.817Z,3.17
2023-03-27T21:47:44.645Z,3.75
2023-03-27T21:49:50.004Z,4.05
2023-03-27T21:51:52.659Z,3.55
2023-03-27T21:53:55.553Z,3.05
2023-03-27T21:55:58.551Z,3.47
2023-03-27T21:58:01.414Z,3.85
2023-03-27T22:00:05.876Z,4.50
2023-03-27T22:02:08.498Z,3.33
2023-03-27T22:04:11.755Z,3.78
2023-03-27T22:06:14.721Z,3.60
2023-03-27T22:08:18.245Z,3.63
2023-03-27T22:10:21.130Z,4.20
2023-03-27T22:12:23.717Z,3.72
2023-03-27T22:14:26.839Z,3.80
2023-03-27T22:16:30.069Z,3.30
2023-03-27T22:18:32.682Z,3.72
2023-03-27T22:20:35.465Z,3.70
2023-03-27T22:22:38.209Z,3.80
2023-03-27T22:24:41.092Z,3.63
2023-03-27T22:26:43.727Z,3.05
2023-03-27T22:28:46.819Z,4.90
2023-03-27T22:30:51.233Z,3.60
2023-03-27T22:32:55.150Z,3.53
2023-03-27T22:34:57.962Z,3.95
2023-03-27T22:37:02.965Z,3.38
2023-03-27T22:39:06.420Z,3.58
2023-03-27T22:41:11.724Z,5.10
2023-03-27T22:43:22.991Z,4.35
2023-03-27T22:45:26.276Z,4.70
2023-03-27T22:47:31.274Z,4.57
2023-03-27T22:49:36.174Z,4.55
2023-03-27T22:51:38.900Z,4.93
2023-03-27T22:53:41.978Z,4.43
2023-03-27T22:55:51.255Z,4.22
2023-03-27T22:57:53.836Z,5.25
2023-03-27T22:59:56.643Z,4.72
2023-03-27T23:01:59.601Z,4.88
2023-03-27T23:04:02.534Z,5.15
2023-03-27T23:06:05.614Z,4.95
2023-03-27T23:08:08.846Z,4.80
2023-03-27T23:10:11.522Z,5.13
2023-03-27T23:12:14.756Z,5.03
2023-03-27T23:14:17.459Z,4.65
2023-03-27T23:16:20.134Z,4.90
2023-03-27T23:18:26.171Z,4.57
2023-03-27T23:20:29.781Z,4.70
2023-03-27T23:22:32.360Z,5.00
2023-03-27T23:24:35.010Z,4.10
2023-03-27T23:26:37.743Z,4.60
2023-03-27T23:28:42.428Z,4.93
2023-03-27T23:30:59.591Z,5.38
2023-03-27T23:33:02.623Z,4.97
2023-03-27T23:35:07.745Z,5.40
2023-03-27T23:37:10.735Z,4.55
2023-03-27T23:39:13.481Z,4.97
2023-03-27T23:41:16.787Z,4.97
2023-03-27T23:43:19.499Z,4.75
2023-03-27T23:45:22.092Z,5.07
2023-03-27T23:47:24.763Z,5.35
2023-03-27T23:49:27.472Z,5.10
2023-03-27T23:51:30.079Z,5.10
2023-03-27T23:53:33.049Z,4.95
2023-03-27T23:55:35.966Z,5.32
2023-03-27T23:57:38.626Z,4.50
2023-03-27T23:59:41.633Z,5.35
